Time;durP1;ratioP1;P1;durP2;ratioP2;P2;SDS_P1;SDS_P2;PMS_P1;PMS_P2;Temp;Humidity;BMP_temperature;BMP_pressure;BME280_temperature;BME280_humidity;BME280_pressure;Samples;Min_cycle;Max_cycle;Signal;HPM_P1;HPM_P2
2022/01/20 00:02:03;;;;;;;8.70;0.77;;;3.00;99.90;;;;;;5035401;28;20606;-85
2022/01/20 00:04:40;;;;;;;6.40;1.47;;;3.00;99.90;;;;;;5034367;28;20445;-86
2022/01/20 00:26:10;;;;;;;10.70;1.57;;;2.90;99.90;;;;;;5053259;28;20399;-85
2022/01/20 00:33:52;;;;;;;8.20;1.67;;;2.80;99.90;;;;;;5052882;28;20424;-85
2022/01/20 00:39:04;;;;;;;11.63;1.63;;;2.90;99.90;;;;;;5052553;28;20403;-86
2022/01/20 00:41:30;;;;;;;19.93;2.30;;;3.10;99.90;;;;;;5034797;28;20795;-86
2022/01/20 00:43:55;;;;;;;14.83;1.63;;;3.20;99.90;;;;;;5051572;28;20411;-85
2022/01/20 00:46:23;;;;;;;9.30;1.43;;;3.20;99.90;;;;;;5034382;28;20760;-86
2022/01/20 00:48:49;;;;;;;9.53;1.50;;;3.30;99.90;;;;;;5034564;28;20181;-85
2022/01/20 00:51:14;;;;;;;18.50;2.40;;;3.30;99.90;;;;;;5034702;28;20429;-85
2022/01/20 00:53:44;;;;;;;6.63;1.80;;;3.30;99.90;;;;;;5034570;28;20198;-85
2022/01/20 00:56:12;;;;;;;4.70;1.50;;;3.30;99.90;;;;;;5034720;28;20175;-85
2022/01/20 00:58:38;;;;;;;13.53;2.13;;;3.20;99.90;;;;;;5034195;28;20413;-86
2022/01/20 01:01:03;;;;;;;15.73;2.33;;;3.10;99.90;;;;;;5015411;28;20809;-85
2022/01/20 01:03:29;;;;;;;7.03;1.07;;;3.00;99.90;;;;;;5031289;28;20581;-86
2022/01/20 01:08:38;;;;;;;12.50;2.70;;;3.00;99.90;;;;;;5032605;28;20185;-85
2022/01/20 01:11:04;;;;;;;17.90;2.60;;;3.10;99.90;;;;;;5032280;28;20472;-85
2022/01/20 01:13:30;;;;;;;10.60;1.87;;;3.20;99.90;;;;;;5032051;28;20893;-85
2022/01/20 01:15:56;;;;;;;16.40;2.87;;;3.20;99.90;;;;;;5030439;28;20191;-85
2022/01/20 01:23:32;;;;;;;5.50;1.77;;;3.30;99.90;;;;;;5052459;28;20412;-85
2022/01/20 01:25:58;;;;;;;11.10;2.47;;;3.30;99.90;;;;;;5052667;28;20668;-85
2022/01/20 01:28:27;;;;;;;23.33;2.30;;;3.30;99.90;;;;;;5052539;28;20416;-85
2022/01/20 01:33:39;;;;;;;12.23;2.57;;;3.50;99.90;;;;;;5052989;28;20506;-85
2022/01/20 01:36:07;;;;;;;7.90;1.47;;;3.40;99.90;;;;;;5052519;28;20474;-85
2022/01/20 01:38:36;;;;;;;8.03;1.50;;;3.20;99.90;;;;;;5052562;28;20455;-86
2022/01/20 01:41:12;;;;;;;8.33;1.77;;;3.20;99.90;;;;;;5052338;28;20409;-85
2022/01/20 01:43:41;;;;;;;6.33;1.17;;;3.00;99.90;;;;;;5047905;28;20427;-85
2022/01/20 01:46:08;;;;;;;2.10;0.87;;;2.60;99.90;;;;;;5051816;28;20400;-86
2022/01/20 01:48:34;;;;;;;7.90;1.43;;;2.40;99.90;;;;;;5033133;28;20428;-85
2022/01/20 01:51:00;;;;;;;5.13;1.20;;;2.40;99.90;;;;;;5051606;28;20498;-85
2022/01/20 01:53:26;;;;;;;5.10;0.83;;;2.30;99.90;;;;;;5052301;28;20443;-85
2022/01/20 01:55:52;;;;;;;4.70;1.13;;;2.30;99.90;;;;;;5038256;28;20938;-86
2022/01/20 01:58:18;;;;;;;7.80;1.93;;;2.40;99.90;;;;;;5037919;28;20506;-85
2022/01/20 02:00:44;;;;;;;1.90;0.70;;;2.40;99.90;;;;;;5056080;28;20183;-85
2022/01/20 02:03:12;;;;;;;3.63;0.70;;;2.50;99.90;;;;;;5055955;28;20167;-84
2022/01/20 02:05:50;;;;;;;4.67;0.60;;;2.50;99.90;;;;;;5056007;28;20518;-86
2022/01/20 02:08:31;;;;;;;6.17;2.20;;;2.60;99.90;;;;;;5055828;28;20400;-86
2022/01/20 02:19:12;;;;;;;7.20;2.13;;;2.80;99.90;;;;;;5063970;28;20500;-84
2022/01/20 02:21:51;;;;;;;17.47;1.80;;;2.80;99.90;;;;;;5057673;28;20423;-86
2022/01/20 02:24:17;;;;;;;7.63;1.13;;;2.80;99.90;;;;;;5075610;28;20176;-85
2022/01/20 02:26:43;;;;;;;3.53;0.57;;;2.80;99.90;;;;;;5075267;28;20941;-86
2022/01/20 02:29:09;;;;;;;5.90;1.17;;;2.80;99.90;;;;;;5075169;28;20950;-84
2022/01/20 02:31:36;;;;;;;6.97;0.57;;;2.80;99.90;;;;;;5075414;28;20447;-84
2022/01/20 02:34:01;;;;;;;9.37;1.10;;;2.80;99.90;;;;;;5057591;28;20632;-84
2022/01/20 02:36:28;;;;;;;4.40;1.30;;;2.80;99.90;;;;;;5075373;28;20419;-84
2022/01/20 02:38:58;;;;;;;3.60;1.23;;;2.80;99.90;;;;;;5075309;28;20188;-84
2022/01/20 02:46:53;;;;;;;6.70;1.23;;;2.70;99.90;;;;;;5075205;28;20394;-85
2022/01/20 02:49:19;;;;;;;11.30;1.40;;;2.70;99.90;;;;;;5056929;28;20463;-85
2022/01/20 02:51:50;;;;;;;7.00;0.97;;;2.60;99.90;;;;;;5057041;28;20173;-85
2022/01/20 02:54:17;;;;;;;6.00;1.10;;;2.50;99.90;;;;;;5075003;28;20423;-85
2022/01/20 02:56:42;;;;;;;6.80;1.57;;;2.40;99.90;;;;;;5074668;28;20522;-84
2022/01/20 02:59:08;;;;;;;6.67;1.10;;;2.40;99.90;;;;;;5075136;28;20419;-84
2022/01/20 03:01:34;;;;;;;8.03;1.30;;;2.40;99.90;;;;;;5074819;28;20173;-86
2022/01/20 03:04:00;;;;;;;8.67;1.23;;;2.40;99.90;;;;;;5074703;28;20633;-85
2022/01/20 03:06:26;;;;;;;12.67;2.00;;;2.30;99.90;;;;;;5074037;28;20161;-87
2022/01/20 03:08:52;;;;;;;8.17;2.63;;;2.30;99.90;;;;;;5074367;28;20431;-84
2022/01/20 03:11:17;;;;;;;8.83;0.90;;;2.30;99.90;;;;;;5074884;28;20428;-86
2022/01/20 03:13:43;;;;;;;7.20;2.60;;;2.30;99.90;;;;;;5074373;28;20185;-85
2022/01/20 03:16:08;;;;;;;8.43;1.70;;;2.30;99.90;;;;;;5056680;28;20234;-87
2022/01/20 03:18:34;;;;;;;5.97;1.00;;;2.30;99.90;;;;;;5074148;28;20252;-85
2022/01/20 03:20:59;;;;;;;6.43;0.93;;;2.30;99.90;;;;;;5074682;28;20170;-84
2022/01/20 03:23:25;;;;;;;9.40;1.90;;;2.20;99.90;;;;;;5074627;28;20181;-87
2022/01/20 03:25:51;;;;;;;13.23;2.50;;;2.10;99.90;;;;;;5074592;28;20165;-86
2022/01/20 03:28:16;;;;;;;6.47;1.70;;;2.00;99.90;;;;;;5074211;28;20248;-87
2022/01/20 03:30:42;;;;;;;6.60;1.60;;;2.00;99.90;;;;;;5074514;28;20215;-85
2022/01/20 03:33:07;;;;;;;10.03;2.00;;;2.00;99.90;;;;;;5074415;28;20168;-86
2022/01/20 03:35:33;;;;;;;5.90;1.43;;;2.10;99.90;;;;;;5074214;28;20180;-87
2022/01/20 03:37:59;;;;;;;9.60;2.07;;;2.00;99.90;;;;;;5056382;28;20177;-85
2022/01/20 03:40:24;;;;;;;9.53;2.67;;;2.00;99.90;;;;;;5074184;28;20508;-86
2022/01/20 03:42:51;;;;;;;6.30;1.27;;;2.10;99.90;;;;;;5055850;28;20184;-85
2022/01/20 03:45:16;;;;;;;3.47;1.17;;;1.90;99.90;;;;;;5073850;28;20173;-85
2022/01/20 03:47:42;;;;;;;6.33;0.87;;;1.80;99.90;;;;;;5073789;28;20415;-85
2022/01/20 03:50:59;;;;;;;15.37;1.70;;;1.80;99.90;;;;;;5073887;28;20216;-85
2022/01/20 03:52:54;;;;;;;13.53;1.90;;;1.80;99.90;;;;;;5073756;28;20419;-85
2022/01/20 03:55:20;;;;;;;7.63;1.97;;;1.90;99.90;;;;;;5055991;28;20518;-85
2022/01/20 03:57:45;;;;;;;5.00;1.00;;;2.00;99.90;;;;;;5073425;28;20534;-86
2022/01/20 04:00:11;;;;;;;8.33;1.60;;;2.10;99.90;;;;;;5073714;28;20238;-85
2022/01/20 04:02:36;;;;;;;5.60;0.87;;;2.10;99.90;;;;;;5055683;28;20195;-85
2022/01/20 04:05:02;;;;;;;9.50;1.77;;;2.10;99.90;;;;;;5073632;28;20435;-85
2022/01/20 04:07:28;;;;;;;5.50;1.07;;;2.00;99.90;;;;;;5055713;28;20592;-85
2022/01/20 04:09:53;;;;;;;5.77;1.00;;;2.00;99.90;;;;;;5073621;28;20213;-86
2022/01/20 04:12:18;;;;;;;8.33;1.23;;;2.00;99.90;;;;;;5073363;28;20640;-88
2022/01/20 04:14:48;;;;;;;8.03;0.70;;;2.00;99.90;;;;;;5073872;28;20177;-87
2022/01/20 04:17:19;;;;;;;6.80;1.70;;;1.90;99.90;;;;;;5073574;28;20180;-84
2022/01/20 04:19:47;;;;;;;6.23;0.60;;;1.80;99.90;;;;;;5073557;28;20455;-88
2022/01/20 04:22:13;;;;;;;7.83;1.83;;;1.70;99.90;;;;;;5073560;28;20403;-87
2022/01/20 04:24:39;;;;;;;5.17;1.20;;;1.80;99.90;;;;;;5073396;28;20493;-86
2022/01/20 04:27:06;;;;;;;5.07;0.93;;;1.80;99.90;;;;;;5073109;28;20445;-84
2022/01/20 04:29:32;;;;;;;5.80;1.40;;;1.90;99.90;;;;;;5055372;28;20192;-85
2022/01/20 04:31:58;;;;;;;1.50;0.50;;;1.80;99.90;;;;;;5055258;28;20431;-84
2022/01/20 04:34:24;;;;;;;8.93;1.30;;;1.80;99.90;;;;;;5055277;28;20506;-86
2022/01/20 04:36:52;;;;;;;5.80;1.00;;;1.80;99.90;;;;;;5055216;28;20173;-86
2022/01/20 04:39:23;;;;;;;6.93;1.37;;;1.70;99.90;;;;;;5055372;28;20192;-86
2022/01/20 04:41:50;;;;;;;3.43;0.90;;;1.60;99.90;;;;;;5072986;28;20411;-85
2022/01/20 04:45:02;;;;;;;2.63;0.80;;;1.50;99.90;;;;;;5055966;28;20513;-84
2022/01/20 04:58:02;;;;;;;8.20;1.70;;;1.40;99.90;;;;;;5072802;28;20776;-85
2022/01/20 05:00:28;;;;;;;6.50;1.80;;;1.40;99.90;;;;;;5072686;28;20419;-85
2022/01/20 05:02:53;;;;;;;7.37;0.97;;;1.40;99.90;;;;;;5073061;28;20434;-86
2022/01/20 05:05:19;;;;;;;4.67;0.70;;;1.30;99.90;;;;;;5073157;28;20664;-84
2022/01/20 05:07:45;;;;;;;6.60;1.40;;;1.30;99.90;;;;;;5054875;28;20625;-85
2022/01/20 05:10:14;;;;;;;5.23;1.13;;;1.30;99.90;;;;;;5072848;28;20699;-85
2022/01/20 05:15:19;;;;;;;4.30;1.00;;;1.40;99.90;;;;;;5072977;28;20421;-85
2022/01/20 05:17:47;;;;;;;5.50;0.60;;;1.40;99.90;;;;;;5054995;28;20457;-85
2022/01/20 05:20:13;;;;;;;6.47;0.90;;;1.40;99.90;;;;;;5072817;28;20462;-86
2022/01/20 05:22:39;;;;;;;6.53;1.03;;;1.40;99.90;;;;;;5073046;28;20422;-84
2022/01/20 05:25:05;;;;;;;6.43;1.27;;;1.30;99.90;;;;;;5072996;28;20203;-86
2022/01/20 05:27:31;;;;;;;5.93;0.90;;;1.30;99.90;;;;;;5054723;28;20580;-88
2022/01/20 05:29:57;;;;;;;9.80;1.07;;;1.30;99.90;;;;;;5057509;28;20454;-86
2022/01/20 05:32:23;;;;;;;10.57;2.00;;;1.40;99.90;;;;;;5076918;28;20169;-84
2022/01/20 05:34:48;;;;;;;9.30;1.20;;;1.30;99.90;;;;;;5076736;28;20414;-85
2022/01/20 05:37:14;;;;;;;4.80;1.37;;;1.40;99.90;;;;;;5058764;28;20169;-88
2022/01/20 05:39:40;;;;;;;4.30;0.90;;;1.40;99.90;;;;;;5059067;28;20651;-85
2022/01/20 05:42:07;;;;;;;14.40;3.27;;;1.30;99.90;;;;;;5076308;28;20597;-87
2022/01/20 05:44:32;;;;;;;7.63;1.70;;;1.30;99.90;;;;;;5076522;28;20413;-87
2022/01/20 05:46:58;;;;;;;11.67;1.07;;;1.30;99.90;;;;;;5076393;28;20406;-87
2022/01/20 05:49:23;;;;;;;7.90;2.07;;;1.30;99.90;;;;;;5058512;28;20196;-86
2022/01/20 05:51:53;;;;;;;6.20;1.17;;;1.30;99.90;;;;;;5076337;28;20502;-86
2022/01/20 05:54:20;;;;;;;6.70;2.90;;;1.40;99.90;;;;;;5076837;28;20168;-87
2022/01/20 05:56:52;;;;;;;12.50;1.60;;;1.50;99.90;;;;;;5076307;28;20930;-87
2022/01/20 05:59:17;;;;;;;4.53;1.07;;;1.50;99.90;;;;;;5058648;28;21001;-87
2022/01/20 06:01:46;;;;;;;9.83;1.37;;;1.50;99.90;;;;;;5058745;28;20448;-86
2022/01/20 06:04:11;;;;;;;12.27;2.30;;;1.50;99.90;;;;;;5076337;28;20165;-87
2022/01/20 06:06:38;;;;;;;13.83;2.50;;;1.40;99.90;;;;;;5076038;28;20971;-86
2022/01/20 06:09:08;;;;;;;10.80;1.87;;;1.40;99.90;;;;;;5075928;28;20628;-86
2022/01/20 06:11:37;;;;;;;15.87;2.33;;;1.40;99.90;;;;;;5057794;28;20950;-86
2022/01/20 06:14:03;;;;;;;6.73;1.40;;;1.30;99.90;;;;;;5058109;28;20488;-85
2022/01/20 06:16:30;;;;;;;13.37;2.20;;;1.40;99.90;;;;;;5057966;28;20423;-87
2022/01/20 06:18:55;;;;;;;12.33;3.53;;;1.40;99.90;;;;;;5057811;28;20455;-86
2022/01/20 06:21:21;;;;;;;14.57;1.90;;;1.40;99.90;;;;;;5058242;28;20464;-86
2022/01/20 06:23:48;;;;;;;6.70;1.23;;;1.40;99.90;;;;;;5075803;28;20242;-86
2022/01/20 06:26:14;;;;;;;9.57;2.00;;;1.40;99.90;;;;;;5075265;28;20173;-86
2022/01/20 06:28:42;;;;;;;12.67;1.53;;;1.40;99.90;;;;;;5057816;28;20418;-86
2022/01/20 06:31:09;;;;;;;8.13;1.90;;;1.40;99.90;;;;;;5057392;28;20204;-86
2022/01/20 06:33:35;;;;;;;12.17;1.90;;;1.50;99.90;;;;;;5074981;28;20421;-85
2022/01/20 06:36:00;;;;;;;8.80;1.33;;;1.50;99.90;;;;;;5056515;28;20820;-86
2022/01/20 06:38:26;;;;;;;10.90;2.27;;;1.40;99.90;;;;;;5075695;28;20205;-88
2022/01/20 06:40:52;;;;;;;14.60;2.37;;;1.40;99.90;;;;;;5074084;28;20563;-88
2022/01/20 06:43:18;;;;;;;17.20;2.80;;;1.50;99.90;;;;;;5058337;28;20446;-88
2022/01/20 06:45:45;;;;;;;10.40;1.20;;;1.50;99.90;;;;;;5075715;28;20928;-87
2022/01/20 06:48:11;;;;;;;8.80;1.97;;;1.50;99.90;;;;;;5075303;28;20177;-87
2022/01/20 06:50:36;;;;;;;9.57;1.87;;;1.50;99.90;;;;;;5057477;28;20836;-87
2022/01/20 06:53:02;;;;;;;7.77;1.30;;;1.50;99.90;;;;;;5075269;28;20182;-86
2022/01/20 06:55:27;;;;;;;7.90;2.00;;;1.50;99.90;;;;;;5075322;28;20215;-86
2022/01/20 06:57:53;;;;;;;8.53;2.30;;;1.50;99.90;;;;;;5056923;28;20243;-86
2022/01/20 07:00:22;;;;;;;5.57;1.40;;;1.50;99.90;;;;;;5057561;28;20284;-87
2022/01/20 07:02:51;;;;;;;9.07;3.57;;;1.50;99.90;;;;;;5075266;28;20165;-88
2022/01/20 07:05:19;;;;;;;7.17;1.57;;;1.50;99.90;;;;;;5057298;28;20423;-87
2022/01/20 07:07:45;;;;;;;6.60;1.73;;;1.60;99.90;;;;;;5057311;28;20417;-86
2022/01/20 07:10:13;;;;;;;8.33;1.70;;;1.60;99.90;;;;;;5058307;28;20487;-86
2022/01/20 07:12:41;;;;;;;9.47;1.80;;;1.60;99.90;;;;;;5074860;28;20169;-88
2022/01/20 07:15:07;;;;;;;9.93;2.27;;;1.50;99.90;;;;;;5075045;28;20453;-87
2022/01/20 07:17:33;;;;;;;11.03;2.70;;;1.50;99.90;;;;;;5075202;28;20477;-87
2022/01/20 07:19:58;;;;;;;4.20;1.10;;;1.60;99.90;;;;;;5074755;28;20466;-88
2022/01/20 07:22:24;;;;;;;7.30;2.90;;;1.60;99.90;;;;;;5075468;28;20188;-88
2022/01/20 07:24:50;;;;;;;6.43;1.83;;;1.70;99.90;;;;;;5058092;28;20179;-88
2022/01/20 07:27:16;;;;;;;12.87;2.63;;;1.50;99.90;;;;;;5057048;28;20176;-88
2022/01/20 07:29:42;;;;;;;13.67;2.80;;;1.50;99.90;;;;;;5075144;28;20905;-88
2022/01/20 07:32:08;;;;;;;7.70;1.97;;;1.70;99.90;;;;;;5075283;28;20597;-85
2022/01/20 07:34:34;;;;;;;19.13;2.90;;;1.70;99.90;;;;;;5075451;28;20465;-88
2022/01/20 07:37:00;;;;;;;9.53;3.50;;;1.60;99.90;;;;;;5075614;28;20510;-87
2022/01/20 07:39:26;;;;;;;11.13;1.43;;;1.60;99.90;;;;;;5074495;28;20437;-85
2022/01/20 07:41:51;;;;;;;11.40;2.00;;;1.60;99.90;;;;;;5056226;28;20415;-87
2022/01/20 07:44:17;;;;;;;8.97;1.63;;;1.80;99.90;;;;;;5075286;28;20515;-86
2022/01/20 07:46:43;;;;;;;4.50;1.30;;;1.80;99.90;;;;;;5076411;28;20177;-88
2022/01/20 07:49:09;;;;;;;4.73;1.40;;;1.80;99.90;;;;;;5057889;28;20593;-88
2022/01/20 07:51:35;;;;;;;5.70;1.83;;;1.80;99.90;;;;;;5073864;28;20430;-87
2022/01/20 07:54:00;;;;;;;9.30;3.03;;;1.90;99.90;;;;;;5074360;28;20411;-88
2022/01/20 07:56:29;;;;;;;8.00;1.50;;;2.00;99.90;;;;;;5055842;28;20187;-87
2022/01/20 07:58:54;;;;;;;7.17;2.13;;;2.00;99.90;;;;;;5056101;28;20173;-88
2022/01/20 08:01:22;;;;;;;17.70;3.70;;;2.10;99.90;;;;;;5056128;28;20494;-88
2022/01/20 08:03:48;;;;;;;10.17;1.50;;;2.10;99.90;;;;;;5074125;28;20640;-86
2022/01/20 08:06:14;;;;;;;10.63;1.43;;;2.20;99.90;;;;;;5056240;28;20517;-87
2022/01/20 08:08:40;;;;;;;5.13;1.73;;;2.20;99.90;;;;;;5073896;28;20581;-86
2022/01/20 08:11:05;;;;;;;6.80;1.87;;;2.30;99.90;;;;;;5055460;28;20470;-87
2022/01/20 08:13:30;;;;;;;11.03;1.83;;;2.50;99.90;;;;;;5055835;28;20196;-87
2022/01/20 08:15:56;;;;;;;7.40;1.80;;;2.60;99.90;;;;;;5073792;28;20644;-89
2022/01/20 08:18:21;;;;;;;11.77;2.00;;;2.80;99.90;;;;;;5074094;28;20189;-88
2022/01/20 08:20:47;;;;;;;4.40;1.60;;;2.90;99.90;;;;;;5074093;28;20629;-88
2022/01/20 08:23:12;;;;;;;8.80;1.77;;;3.10;99.90;;;;;;5073788;28;20180;-88
2022/01/20 08:25:38;;;;;;;7.93;1.23;;;3.20;99.90;;;;;;5056936;28;20184;-93
2022/01/20 08:28:04;;;;;;;9.67;2.97;;;3.30;99.90;;;;;;5074467;28;20161;-87
2022/01/20 08:30:30;;;;;;;10.73;2.30;;;3.00;99.90;;;;;;5073897;28;20233;-87
2022/01/20 08:33:04;;;;;;;7.17;1.17;;;2.90;99.90;;;;;;5074014;28;20173;-89
2022/01/20 08:35:32;;;;;;;11.33;1.70;;;2.90;99.90;;;;;;5055927;28;20205;-87
2022/01/20 08:37:59;;;;;;;8.07;1.80;;;2.60;99.90;;;;;;5055787;28;20417;-87
2022/01/20 08:40:24;;;;;;;5.67;0.87;;;2.40;99.90;;;;;;5073678;28;20447;-87
2022/01/20 08:42:51;;;;;;;5.50;0.60;;;2.90;99.90;;;;;;5054966;28;20830;-86
2022/01/20 08:45:22;;;;;;;5.40;0.93;;;3.70;99.90;;;;;;5073357;28;20511;-87
2022/01/20 08:47:52;;;;;;;5.00;0.60;;;4.20;99.90;;;;;;5056554;28;20419;-87
2022/01/20 08:50:18;;;;;;;5.53;1.07;;;4.70;99.90;;;;;;5073712;28;20478;-87
2022/01/20 08:52:43;;;;;;;4.03;0.93;;;5.00;99.90;;;;;;5055232;28;20415;-86
2022/01/20 08:55:09;;;;;;;7.30;1.07;;;5.40;99.90;;;;;;5073468;28;20219;-86
2022/01/20 08:57:34;;;;;;;6.40;0.83;;;5.20;99.90;;;;;;5072987;28;20607;-86
2022/01/20 09:00:00;;;;;;;9.97;1.53;;;5.20;99.90;;;;;;5073593;28;20537;-86
2022/01/20 09:02:25;;;;;;;14.53;1.33;;;5.70;99.90;;;;;;5055290;28;20169;-86
2022/01/20 09:04:51;;;;;;;6.10;1.00;;;6.40;99.90;;;;;;5053976;28;20178;-87
2022/01/20 09:07:18;;;;;;;4.37;0.70;;;7.00;99.00;;;;;;5072840;28;20186;-87
2022/01/20 09:09:46;;;;;;;7.17;1.80;;;7.20;97.40;;;;;;5054953;28;20207;-85
2022/01/20 09:17:43;;;;;;;8.87;0.87;;;6.80;97.50;;;;;;5073433;28;20488;-87
2022/01/20 09:20:09;;;;;;;16.73;1.60;;;6.00;99.50;;;;;;5055016;28;20897;-87
2022/01/20 09:22:35;;;;;;;8.60;1.27;;;5.60;99.90;;;;;;5073469;28;20166;-87
2022/01/20 09:25:00;;;;;;;9.27;1.00;;;6.50;99.90;;;;;;5055049;28;20501;-86
2022/01/20 09:27:26;;;;;;;6.93;1.13;;;7.60;97.90;;;;;;5072902;28;20560;-86
2022/01/20 09:29:51;;;;;;;6.83;2.03;;;8.10;96.00;;;;;;5073221;28;20228;-87
2022/01/20 09:32:19;;;;;;;4.13;1.00;;;8.60;94.30;;;;;;5072796;28;20188;-86
2022/01/20 09:34:46;;;;;;;7.80;1.37;;;8.60;94.70;;;;;;5056114;28;20196;-87
2022/01/20 09:37:13;;;;;;;12.23;1.70;;;6.90;96.50;;;;;;5075476;28;20801;-86
2022/01/20 09:39:39;;;;;;;6.00;1.40;;;6.30;98.60;;;;;;5074912;28;21246;-87
2022/01/20 09:42:06;;;;;;;10.03;2.37;;;6.70;99.50;;;;;;5072361;28;20465;-87
2022/01/20 09:44:34;;;;;;;6.50;1.43;;;6.90;97.80;;;;;;5072935;28;20407;-87
2022/01/20 09:47:00;;;;;;;2.77;0.73;;;6.00;99.90;;;;;;5054772;28;20872;-86
2022/01/20 09:49:25;;;;;;;5.87;1.83;;;5.10;99.90;;;;;;5072491;28;20539;-86
2022/01/20 09:51:51;;;;;;;5.13;0.90;;;4.60;99.90;;;;;;5072752;28;20177;-87
2022/01/20 09:54:17;;;;;;;5.23;0.73;;;4.40;99.90;;;;;;5054720;28;20177;-86
2022/01/20 09:56:44;;;;;;;5.17;0.90;;;4.30;99.90;;;;;;5072095;28;20181;-87
2022/01/20 09:59:11;;;;;;;6.53;0.97;;;4.20;99.90;;;;;;5054427;28;20419;-87
2022/01/20 10:01:47;;;;;;;3.50;1.20;;;4.20;99.90;;;;;;5072525;28;20418;-88
2022/01/20 10:04:25;;;;;;;3.60;0.43;;;3.90;99.90;;;;;;5072720;28;20403;-87
2022/01/20 10:07:01;;;;;;;2.80;0.50;;;3.80;99.90;;;;;;5054366;28;20446;-86
2022/01/20 10:09:36;;;;;;;5.63;1.33;;;3.80;99.90;;;;;;5054579;28;20454;-86
2022/01/20 10:12:03;;;;;;;4.70;0.97;;;3.90;99.90;;;;;;5072302;28;20668;-88
2022/01/20 10:14:42;;;;;;;6.47;1.40;;;3.90;99.90;;;;;;5074296;28;20411;-87
2022/01/20 10:17:21;;;;;;;6.00;1.00;;;3.60;99.90;;;;;;5069220;28;20418;-86
2022/01/20 10:19:51;;;;;;;15.33;2.27;;;3.60;99.90;;;;;;5072928;28;20562;-86
2022/01/20 10:22:23;;;;;;;7.40;1.27;;;3.80;99.90;;;;;;5076315;28;20507;-87
2022/01/20 10:25:11;;;;;;;4.50;0.60;;;4.00;99.90;;;;;;5092478;28;20412;-86
2022/01/20 10:27:52;;;;;;;10.77;0.67;;;4.20;99.90;;;;;;5088242;28;20417;-84
2022/01/20 10:30:19;;;;;;;7.17;1.30;;;4.70;99.90;;;;;;5086115;28;20542;-87
2022/01/20 10:32:53;;;;;;;3.77;1.07;;;4.40;99.90;;;;;;5081246;28;20470;-86
2022/01/20 10:35:25;;;;;;;8.10;1.80;;;4.10;99.90;;;;;;5067421;28;20445;-87
2022/01/20 10:37:59;;;;;;;9.33;2.20;;;3.90;99.90;;;;;;5085384;28;20407;-87
2022/01/20 10:40:25;;;;;;;5.23;1.03;;;3.60;99.90;;;;;;5067844;28;20931;-86
2022/01/20 10:42:51;;;;;;;5.67;0.60;;;3.40;99.90;;;;;;5088634;28;20412;-86
2022/01/20 10:45:28;;;;;;;2.33;0.90;;;3.30;99.90;;;;;;5089222;28;20430;-87
2022/01/20 10:47:57;;;;;;;3.80;1.27;;;3.20;99.90;;;;;;5093492;28;20421;-87
2022/01/20 10:50:28;;;;;;;2.57;0.57;;;3.30;99.90;;;;;;5071936;28;20489;-86
2022/01/20 10:52:57;;;;;;;2.40;0.50;;;3.30;99.90;;;;;;5089317;28;20409;-86
2022/01/20 10:55:34;;;;;;;5.87;0.70;;;3.20;99.90;;;;;;5089166;28;20412;-84
2022/01/20 10:58:15;;;;;;;6.37;0.50;;;3.00;99.90;;;;;;5095691;28;20411;-83
2022/01/20 11:00:46;;;;;;;2.73;0.50;;;3.60;99.90;;;;;;5094569;28;20420;-85
2022/01/20 11:03:13;;;;;;;0.83;0.33;;;5.40;99.90;;;;;;5096890;28;20449;-86
2022/01/20 11:05:39;;;;;;;2.43;0.73;;;6.30;99.90;;;;;;5080813;28;20464;-86
2022/01/20 11:08:06;;;;;;;2.30;0.60;;;7.00;99.90;;;;;;5092618;28;20902;-86
2022/01/20 11:10:32;;;;;;;3.10;0.60;;;6.40;99.90;;;;;;5071404;28;20565;-85
2022/01/20 11:12:57;;;;;;;3.40;0.60;;;7.30;99.90;;;;;;5068033;28;20413;-87
2022/01/20 11:15:26;;;;;;;2.40;0.30;;;8.20;99.90;;;;;;5058609;28;20256;-87
2022/01/20 11:17:54;;;;;;;3.37;0.43;;;9.20;98.80;;;;;;5057558;28;20299;-86
2022/01/20 11:20:23;;;;;;;6.53;0.63;;;9.40;96.30;;;;;;5075306;28;20469;-85
2022/01/20 11:22:57;;;;;;;1.30;0.43;;;9.20;97.10;;;;;;5075301;28;20405;-86
2022/01/20 11:25:25;;;;;;;4.37;0.50;;;9.00;96.60;;;;;;5074943;28;20418;-87
2022/01/20 11:28:02;;;;;;;5.20;0.73;;;7.20;99.70;;;;;;5058407;28;20436;-87
2022/01/20 11:30:29;;;;;;;4.80;0.70;;;6.90;99.90;;;;;;5076410;28;21014;-86
2022/01/20 11:33:05;;;;;;;4.53;0.63;;;8.00;97.50;;;;;;5074998;28;20511;-87
2022/01/20 11:35:59;;;;;;;4.50;1.60;;;7.50;99.90;;;;;;5056766;28;20466;-88
2022/01/20 11:38:59;;;;;;;4.30;0.70;;;7.30;99.90;;;;;;5056658;28;20416;-87
2022/01/20 11:41:36;;;;;;;4.70;0.70;;;8.80;95.80;;;;;;5042021;28;20426;-87
2022/01/20 11:44:10;;;;;;;3.50;0.80;;;9.00;93.20;;;;;;5056509;28;20425;-87
2022/01/20 11:46:41;;;;;;;10.17;1.70;;;10.10;92.30;;;;;;5074309;28;20416;-87
2022/01/20 11:49:10;;;;;;;3.60;0.70;;;9.80;91.30;;;;;;5056459;28;20434;-87
2022/01/20 11:51:57;;;;;;;6.37;1.10;;;9.80;90.60;;;;;;5074215;28;20427;-87
2022/01/20 11:54:37;;;;;;;5.47;0.83;;;8.40;91.10;;;;;;5074225;28;20423;-86
2022/01/20 11:57:08;;;;;;;5.93;0.73;;;6.80;93.00;;;;;;5056018;28;20441;-87
2022/01/20 11:59:56;;;;;;;7.10;1.33;;;6.00;95.70;;;;;;5055713;28;20447;-86
2022/01/20 12:02:29;;;;;;;5.80;1.97;;;6.10;96.10;;;;;;5056305;28;20434;-87
2022/01/20 12:04:54;;;;;;;6.97;1.07;;;6.00;96.60;;;;;;5056181;28;20483;-86
2022/01/20 12:07:32;;;;;;;13.70;1.10;;;5.80;97.50;;;;;;5056107;28;20959;-86
2022/01/20 12:10:06;;;;;;;4.20;1.13;;;5.60;97.40;;;;;;5055980;28;20210;-86
2022/01/20 12:12:32;;;;;;;5.63;0.90;;;5.60;97.60;;;;;;5056017;28;20419;-87
2022/01/20 12:15:10;;;;;;;4.77;0.77;;;6.00;97.50;;;;;;5074259;28;20531;-88
2022/01/20 12:17:37;;;;;;;5.03;1.00;;;6.20;96.60;;;;;;5073935;28;20300;-85
2022/01/20 12:20:04;;;;;;;6.93;1.73;;;6.40;94.30;;;;;;5055787;28;20464;-87
2022/01/20 12:22:29;;;;;;;4.73;1.17;;;6.90;94.90;;;;;;5055657;28;20424;-87
2022/01/20 12:24:57;;;;;;;4.00;1.33;;;7.30;93.10;;;;;;5073382;28;20966;-87
2022/01/20 12:27:24;;;;;;;5.20;0.30;;;5.90;93.60;;;;;;5073591;28;20200;-88
2022/01/20 12:29:56;;;;;;;6.10;0.43;;;5.70;96.00;;;;;;5073531;28;20468;-87
2022/01/20 12:32:25;;;;;;;5.77;0.50;;;5.60;95.60;;;;;;5073770;28;20404;-87
2022/01/20 12:34:59;;;;;;;5.93;0.97;;;5.30;96.40;;;;;;5073748;28;20413;-87
2022/01/20 12:37:39;;;;;;;10.33;2.00;;;5.60;96.40;;;;;;5073305;28;20411;-87
2022/01/20 12:40:07;;;;;;;10.13;1.27;;;6.40;95.10;;;;;;5073149;28;20916;-87
2022/01/20 12:42:34;;;;;;;8.70;1.30;;;6.70;93.30;;;;;;5073538;28;20418;-87
2022/01/20 12:45:55;;;;;;;4.37;1.03;;;6.30;95.00;;;;;;5073407;28;20421;-87
2022/01/20 12:47:51;;;;;;;3.73;0.90;;;7.70;95.20;;;;;;5073086;28;20750;-87
2022/01/20 12:50:17;;;;;;;7.20;2.23;;;8.80;90.70;;;;;;5073175;28;20525;-86
2022/01/20 12:52:50;;;;;;;6.93;1.60;;;8.40;99.90;;;;;;5074013;28;20215;-87
2022/01/20 12:55:17;;;;;;;3.63;1.00;;;7.30;99.90;;;;;;5073254;28;20419;-87
2022/01/20 12:57:45;;;;;;;3.50;0.97;;;6.60;99.90;;;;;;5073324;28;20416;-87
2022/01/20 13:00:11;;;;;;;3.33;0.50;;;5.80;99.90;;;;;;5073333;28;20443;-88
2022/01/20 13:02:36;;;;;;;9.80;1.60;;;4.50;1.00;;;;;;5073442;28;20420;-87
2022/01/20 13:05:05;;;;;;;4.30;0.80;;;2.70;1.00;;;;;;5055241;28;20427;-87
2022/01/20 13:07:37;;;;;;;2.43;0.30;;;2.20;45.20;;;;;;5055241;28;20230;-87
2022/01/20 13:10:22;;;;;;;4.93;1.13;;;2.00;49.80;;;;;;5056036;28;20557;-87
2022/01/20 13:12:48;;;;;;;5.50;0.83;;;1.90;99.90;;;;;;5055379;28;20815;-87
2022/01/20 13:15:16;;;;;;;2.23;0.70;;;1.80;99.90;;;;;;5073454;28;20450;-87
2022/01/20 13:17:42;;;;;;;2.73;0.50;;;2.10;56.20;;;;;;5055054;28;20543;-87
2022/01/20 13:20:16;;;;;;;2.00;0.40;;;2.30;92.20;;;;;;5054943;28;20468;-86
2022/01/20 13:22:53;;;;;;;3.17;1.60;;;2.40;1.00;;;;;;5072972;28;20195;-86
2022/01/20 13:25:31;;;;;;;4.90;0.93;;;2.50;1.00;;;;;;5072798;28;20407;-86
2022/01/20 13:28:02;;;;;;;3.13;0.70;;;2.50;99.90;;;;;;5073063;28;20394;-87
2022/01/20 13:30:30;;;;;;;7.27;1.17;;;2.50;1.00;;;;;;5055036;28;20478;-88
2022/01/20 13:32:57;;;;;;;3.07;1.07;;;2.30;43.60;;;;;;5073150;28;20426;-86
2022/01/20 13:35:23;;;;;;;1.30;0.60;;;2.30;81.20;;;;;;5072999;28;20419;-87
2022/01/20 13:38:01;;;;;;;1.00;0.23;;;2.20;1.00;;;;;;5054605;28;20882;-86
2022/01/20 13:40:27;;;;;;;2.77;0.90;;;1.90;99.90;;;;;;5072989;28;20415;-87
2022/01/20 13:45:41;;;;;;;0.70;0.30;;;1.40;99.90;;;;;;5072894;28;20410;-86
2022/01/20 13:48:08;;;;;;;10.43;1.50;;;1.10;99.90;;;;;;5060212;28;20829;-85
2022/01/20 13:50:41;;;;;;;4.10;0.53;;;1.00;99.90;;;;;;5062023;28;20603;-86
2022/01/20 13:53:17;;;;;;;4.10;0.40;;;1.00;99.90;;;;;;5076486;28;20497;-85
2022/01/20 13:55:45;;;;;;;1.90;0.40;;;1.10;99.90;;;;;;5076057;28;20559;-85
2022/01/20 13:58:25;;;;;;;0.70;0.40;;;1.30;99.90;;;;;;5058502;28;20911;-86
2022/01/20 14:00:52;;;;;;;1.90;0.50;;;1.40;99.90;;;;;;5058581;28;20453;-87
2022/01/20 14:03:21;;;;;;;3.77;0.57;;;1.60;99.90;;;;;;5076365;28;20527;-85
2022/01/20 14:05:47;;;;;;;2.60;0.80;;;1.70;99.90;;;;;;5076003;28;20987;-86
2022/01/20 14:08:13;;;;;;;5.53;0.70;;;1.80;99.90;;;;;;5076087;28;20502;-87
2022/01/20 14:10:39;;;;;;;2.00;0.60;;;2.00;99.90;;;;;;5057732;28;20585;-86
2022/01/20 14:13:04;;;;;;;10.73;0.57;;;2.30;99.90;;;;;;5076044;28;20166;-85
2022/01/20 14:15:30;;;;;;;6.77;0.83;;;2.50;99.90;;;;;;5076316;28;20177;-86